sensor_id;sensor_type;location;lat;lon;timestamp;temperature;humidity
17795;DHT22;9021;50.882;4.326;2023-02-28T00:01:21;4.40;90.20
17795;DHT22;9021;50.882;4.326;2023-02-28T00:03:47;4.40;90.30
17795;DHT22;9021;50.882;4.326;2023-02-28T00:06:13;4.30;90.40
17795;DHT22;9021;50.882;4.326;2023-02-28T00:08:39;4.30;90.50
17795;DHT22;9021;50.882;4.326;2023-02-28T00:11:07;4.30;90.60
17795;DHT22;9021;50.882;4.326;2023-02-28T00:13:35;4.40;90.50
17795;DHT22;9021;50.882;4.326;2023-02-28T00:16:09;4.40;90.60
17795;DHT22;9021;50.882;4.326;2023-02-28T00:18:35;4.30;90.70
17795;DHT22;9021;50.882;4.326;2023-02-28T00:21:01;4.50;90.70
17795;DHT22;9021;50.882;4.326;2023-02-28T00:23:27;4.30;90.70
17795;DHT22;9021;50.882;4.326;2023-02-28T00:25:53;4.30;90.70
17795;DHT22;9021;50.882;4.326;2023-02-28T00:28:19;4.20;90.90
17795;DHT22;9021;50.882;4.326;2023-02-28T00:30:45;4.20;91.00
17795;DHT22;9021;50.882;4.326;2023-02-28T00:33:11;4.20;91.00
17795;DHT22;9021;50.882;4.326;2023-02-28T00:35:36;4.10;91.10
17795;DHT22;9021;50.882;4.326;2023-02-28T00:38:02;5.40;91.50
17795;DHT22;9021;50.882;4.326;2023-02-28T00:40:28;4.10;91.20
17795;DHT22;9021;50.882;4.326;2023-02-28T00:42:54;4.20;91.10
17795;DHT22;9021;50.882;4.326;2023-02-28T00:45:20;4.20;91.00
17795;DHT22;9021;50.882;4.326;2023-02-28T00:47:46;4.10;91.10
17795;DHT22;9021;50.882;4.326;2023-02-28T00:50:20;4.10;91.30
17795;DHT22;9021;50.882;4.326;2023-02-28T00:52:47;4.00;91.40
17795;DHT22;9021;50.882;4.326;2023-02-28T00:55:12;4.10;91.30
17795;DHT22;9021;50.882;4.326;2023-02-28T00:57:38;4.00;91.50
17795;DHT22;9021;50.882;4.326;2023-02-28T01:00:04;3.90;91.70
17795;DHT22;9021;50.882;4.326;2023-02-28T01:02:30;3.90;91.70
17795;DHT22;9021;50.882;4.326;2023-02-28T01:04:56;3.90;91.70
17795;DHT22;9021;50.882;4.326;2023-02-28T01:07:22;4.00;91.60
17795;DHT22;9021;50.882;4.326;2023-02-28T01:09:48;4.00;91.60
17795;DHT22;9021;50.882;4.326;2023-02-28T01:12:14;4.50;91.70
17795;DHT22;9021;50.882;4.326;2023-02-28T01:14:39;4.00;91.70
17795;DHT22;9021;50.882;4.326;2023-02-28T01:17:05;4.00;91.50
17795;DHT22;9021;50.882;4.326;2023-02-28T01:19:31;4.00;91.70
17795;DHT22;9021;50.882;4.326;2023-02-28T01:21:57;3.90;91.80
17795;DHT22;9021;50.882;4.326;2023-02-28T01:24:25;3.80;92.00
17795;DHT22;9021;50.882;4.326;2023-02-28T01:26:50;3.80;92.10
17795;DHT22;9021;50.882;4.326;2023-02-28T01:29:16;3.80;92.10
17795;DHT22;9021;50.882;4.326;2023-02-28T01:31:42;3.80;92.20
17795;DHT22;9021;50.882;4.326;2023-02-28T01:34:07;3.80;92.20
17795;DHT22;9021;50.882;4.326;2023-02-28T01:36:33;3.80;92.40
17795;DHT22;9021;50.882;4.326;2023-02-28T01:38:58;3.80;92.30
17795;DHT22;9021;50.882;4.326;2023-02-28T01:41:27;3.80;92.40
17795;DHT22;9021;50.882;4.326;2023-02-28T01:43:57;3.70;92.40
17795;DHT22;9021;50.882;4.326;2023-02-28T01:46:23;3.80;92.50
17795;DHT22;9021;50.882;4.326;2023-02-28T01:53:57;3.70;92.50
17795;DHT22;9021;50.882;4.326;2023-02-28T01:56:27;3.60;92.70
17795;DHT22;9021;50.882;4.326;2023-02-28T01:58:54;3.50;92.90
17795;DHT22;9021;50.882;4.326;2023-02-28T02:01:21;3.60;92.90
17795;DHT22;9021;50.882;4.326;2023-02-28T02:03:53;3.50;93.00
17795;DHT22;9021;50.882;4.326;2023-02-28T02:06:38;3.60;92.90
17795;DHT22;9021;50.882;4.326;2023-02-28T02:09:04;3.60;92.80
17795;DHT22;9021;50.882;4.326;2023-02-28T02:11:31;3.60;92.80
17795;DHT22;9021;50.882;4.326;2023-02-28T02:22:51;3.50;92.90
17795;DHT22;9021;50.882;4.326;2023-02-28T02:25:28;3.50;93.10
17795;DHT22;9021;50.882;4.326;2023-02-28T02:39:51;3.80;93.60
17795;DHT22;9021;50.882;4.326;2023-02-28T02:41:53;3.40;93.30
17795;DHT22;9021;50.882;4.326;2023-02-28T02:44:31;3.50;93.20
17795;DHT22;9021;50.882;4.326;2023-02-28T02:47:12;3.40;93.20
17795;DHT22;9021;50.882;4.326;2023-02-28T02:49:43;3.40;93.30
17795;DHT22;9021;50.882;4.326;2023-02-28T02:52:14;3.30;93.50
17795;DHT22;9021;50.882;4.326;2023-02-28T02:54:44;3.20;93.50
17795;DHT22;9021;50.882;4.326;2023-02-28T02:57:15;3.20;93.60
17795;DHT22;9021;50.882;4.326;2023-02-28T02:59:43;3.30;93.50
17795;DHT22;9021;50.882;4.326;2023-02-28T03:02:12;3.20;93.70
17795;DHT22;9021;50.882;4.326;2023-02-28T03:04:50;3.20;93.70
17795;DHT22;9021;50.882;4.326;2023-02-28T03:07:17;3.20;93.90
17795;DHT22;9021;50.882;4.326;2023-02-28T03:09:51;3.30;93.70
17795;DHT22;9021;50.882;4.326;2023-02-28T03:12:17;3.20;93.80
17795;DHT22;9021;50.882;4.326;2023-02-28T03:15:09;3.20;93.90
17795;DHT22;9021;50.882;4.326;2023-02-28T03:22:58;3.00;94.40
17795;DHT22;9021;50.882;4.326;2023-02-28T03:25:37;3.00;94.40
17795;DHT22;9021;50.882;4.326;2023-02-28T03:28:13;3.10;94.50
17795;DHT22;9021;50.882;4.326;2023-02-28T03:31:21;3.10;94.50
17795;DHT22;9021;50.882;4.326;2023-02-28T03:34:06;3.10;94.30
17795;DHT22;9021;50.882;4.326;2023-02-28T03:36:38;3.10;94.30
17795;DHT22;9021;50.882;4.326;2023-02-28T03:39:31;3.10;94.20
17795;DHT22;9021;50.882;4.326;2023-02-28T03:42:02;3.10;94.50
17795;DHT22;9021;50.882;4.326;2023-02-28T03:44:45;3.00;94.60
17795;DHT22;9021;50.882;4.326;2023-02-28T03:47:17;2.90;94.90
17795;DHT22;9021;50.882;4.326;2023-02-28T03:50:06;2.90;94.90
17795;DHT22;9021;50.882;4.326;2023-02-28T03:52:37;2.80;95.10
17795;DHT22;9021;50.882;4.326;2023-02-28T03:55:09;2.90;94.90
17795;DHT22;9021;50.882;4.326;2023-02-28T04:00:24;3.10;94.70
17795;DHT22;9021;50.882;4.326;2023-02-28T04:02:54;2.90;95.20
17795;DHT22;9021;50.882;4.326;2023-02-28T04:05:21;2.80;95.40
17795;DHT22;9021;50.882;4.326;2023-02-28T04:07:46;2.80;95.40
17795;DHT22;9021;50.882;4.326;2023-02-28T04:10:12;2.80;95.50
17795;DHT22;9021;50.882;4.326;2023-02-28T04:12:38;2.70;95.60
17795;DHT22;9021;50.882;4.326;2023-02-28T04:15:04;2.70;95.60
17795;DHT22;9021;50.882;4.326;2023-02-28T04:17:30;2.70;95.60
17795;DHT22;9021;50.882;4.326;2023-02-28T04:19:56;2.70;95.80
17795;DHT22;9021;50.882;4.326;2023-02-28T04:22:22;2.70;96.00
17795;DHT22;9021;50.882;4.326;2023-02-28T04:24:51;2.70;96.00
17795;DHT22;9021;50.882;4.326;2023-02-28T04:27:16;2.70;95.90
17795;DHT22;9021;50.882;4.326;2023-02-28T04:29:42;2.70;95.90
17795;DHT22;9021;50.882;4.326;2023-02-28T04:32:10;2.80;95.60
17795;DHT22;9021;50.882;4.326;2023-02-28T04:34:36;2.80;95.50
17795;DHT22;9021;50.882;4.326;2023-02-28T04:37:02;2.90;95.40
17795;DHT22;9021;50.882;4.326;2023-02-28T04:39:28;2.90;95.30
17795;DHT22;9021;50.882;4.326;2023-02-28T04:41:55;2.90;95.30
17795;DHT22;9021;50.882;4.326;2023-02-28T04:44:21;2.90;95.30
17795;DHT22;9021;50.882;4.326;2023-02-28T04:46:47;2.90;95.30
17795;DHT22;9021;50.882;4.326;2023-02-28T04:49:14;2.90;95.40
17795;DHT22;9021;50.882;4.326;2023-02-28T04:51:40;2.90;95.50
17795;DHT22;9021;50.882;4.326;2023-02-28T04:54:05;2.90;95.50
17795;DHT22;9021;50.882;4.326;2023-02-28T04:56:32;2.80;95.90
17795;DHT22;9021;50.882;4.326;2023-02-28T04:58:57;2.70;96.00
17795;DHT22;9021;50.882;4.326;2023-02-28T05:01:30;2.80;96.10
17795;DHT22;9021;50.882;4.326;2023-02-28T05:03:59;2.90;96.00
17795;DHT22;9021;50.882;4.326;2023-02-28T05:06:27;2.90;96.30
17795;DHT22;9021;50.882;4.326;2023-02-28T05:08:53;2.90;96.20
17795;DHT22;9021;50.882;4.326;2023-02-28T05:11:21;3.00;96.20
17795;DHT22;9021;50.882;4.326;2023-02-28T05:13:48;3.00;96.10
17795;DHT22;9021;50.882;4.326;2023-02-28T05:16:14;3.00;96.40
17795;DHT22;9021;50.882;4.326;2023-02-28T05:18:40;3.00;96.30
17795;DHT22;9021;50.882;4.326;2023-02-28T05:21:06;3.10;96.40
17795;DHT22;9021;50.882;4.326;2023-02-28T05:23:42;3.10;96.30
17795;DHT22;9021;50.882;4.326;2023-02-28T05:26:08;3.20;96.10
17795;DHT22;9021;50.882;4.326;2023-02-28T05:28:34;3.30;96.10
17795;DHT22;9021;50.882;4.326;2023-02-28T05:30:59;3.40;96.00
17795;DHT22;9021;50.882;4.326;2023-02-28T05:33:25;3.50;95.90
17795;DHT22;9021;50.882;4.326;2023-02-28T05:35:50;4.20;95.70
17795;DHT22;9021;50.882;4.326;2023-02-28T05:38:16;3.70;95.40
17795;DHT22;9021;50.882;4.326;2023-02-28T05:40:43;3.70;95.20
17795;DHT22;9021;50.882;4.326;2023-02-28T05:43:10;3.70;95.10
17795;DHT22;9021;50.882;4.326;2023-02-28T05:45:37;3.60;95.40
17795;DHT22;9021;50.882;4.326;2023-02-28T05:48:03;3.60;95.30
17795;DHT22;9021;50.882;4.326;2023-02-28T05:50:28;3.60;95.40
17795;DHT22;9021;50.882;4.326;2023-02-28T05:52:54;3.60;95.60
17795;DHT22;9021;50.882;4.326;2023-02-28T05:55:19;3.60;95.60
17795;DHT22;9021;50.882;4.326;2023-02-28T05:57:45;3.60;95.60
17795;DHT22;9021;50.882;4.326;2023-02-28T06:00:11;3.60;95.50
17795;DHT22;9021;50.882;4.326;2023-02-28T06:02:39;3.60;95.60
17795;DHT22;9021;50.882;4.326;2023-02-28T06:05:09;3.60;95.70
17795;DHT22;9021;50.882;4.326;2023-02-28T06:07:38;3.70;95.60
17795;DHT22;9021;50.882;4.326;2023-02-28T06:10:04;3.80;95.50
17795;DHT22;9021;50.882;4.326;2023-02-28T06:12:29;3.80;95.30
17795;DHT22;9021;50.882;4.326;2023-02-28T06:14:55;3.90;95.20
17795;DHT22;9021;50.882;4.326;2023-02-28T06:17:20;4.00;95.40
17795;DHT22;9021;50.882;4.326;2023-02-28T06:19:46;4.00;95.30
17795;DHT22;9021;50.882;4.326;2023-02-28T06:22:13;3.90;95.40
17795;DHT22;9021;50.882;4.326;2023-02-28T06:24:39;3.80;95.40
17795;DHT22;9021;50.882;4.326;2023-02-28T06:27:04;3.90;95.50
17795;DHT22;9021;50.882;4.326;2023-02-28T06:29:32;4.00;95.20
17795;DHT22;9021;50.882;4.326;2023-02-28T06:31:58;4.00;95.20
17795;DHT22;9021;50.882;4.326;2023-02-28T06:34:23;4.00;95.30
17795;DHT22;9021;50.882;4.326;2023-02-28T06:36:50;4.00;95.30
17795;DHT22;9021;50.882;4.326;2023-02-28T06:39:16;4.10;95.50
17795;DHT22;9021;50.882;4.326;2023-02-28T06:41:42;4.20;95.00
17795;DHT22;9021;50.882;4.326;2023-02-28T06:44:12;4.10;95.00
17795;DHT22;9021;50.882;4.326;2023-02-28T06:46:43;4.40;95.10
17795;DHT22;9021;50.882;4.326;2023-02-28T06:49:10;4.10;95.10
17795;DHT22;9021;50.882;4.326;2023-02-28T06:51:37;4.30;94.90
17795;DHT22;9021;50.882;4.326;2023-02-28T06:54:04;4.30;94.80
17795;DHT22;9021;50.882;4.326;2023-02-28T06:56:30;4.30;95.10
17795;DHT22;9021;50.882;4.326;2023-02-28T06:58:56;4.30;95.00
17795;DHT22;9021;50.882;4.326;2023-02-28T07:01:22;4.50;95.10
17795;DHT22;9021;50.882;4.326;2023-02-28T07:03:49;5.00;94.40
17795;DHT22;9021;50.882;4.326;2023-02-28T07:06:19;4.90;94.10
17795;DHT22;9021;50.882;4.326;2023-02-28T07:08:45;5.00;93.90
17795;DHT22;9021;50.882;4.326;2023-02-28T07:11:11;5.50;94.00
17795;DHT22;9021;50.882;4.326;2023-02-28T07:13:37;5.30;93.90
17795;DHT22;9021;50.882;4.326;2023-02-28T07:16:05;5.30;93.70
17795;DHT22;9021;50.882;4.326;2023-02-28T07:18:31;5.50;93.20
17795;DHT22;9021;50.882;4.326;2023-02-28T07:20:57;5.70;93.00
17795;DHT22;9021;50.882;4.326;2023-02-28T07:23:23;5.70;92.80
17795;DHT22;9021;50.882;4.326;2023-02-28T07:25:50;5.70;92.90
17795;DHT22;9021;50.882;4.326;2023-02-28T07:28:15;6.10;92.90
17795;DHT22;9021;50.882;4.326;2023-02-28T07:30:41;5.60;92.90
17795;DHT22;9021;50.882;4.326;2023-02-28T07:33:07;5.70;92.70
17795;DHT22;9021;50.882;4.326;2023-02-28T07:35:33;5.70;92.60
17795;DHT22;9021;50.882;4.326;2023-02-28T07:37:59;5.70;92.60
17795;DHT22;9021;50.882;4.326;2023-02-28T07:40:25;5.80;92.70
17795;DHT22;9021;50.882;4.326;2023-02-28T07:42:51;6.00;92.70
17795;DHT22;9021;50.882;4.326;2023-02-28T07:45:17;6.60;91.90
17795;DHT22;9021;50.882;4.326;2023-02-28T07:47:43;6.90;91.40
17795;DHT22;9021;50.882;4.326;2023-02-28T07:50:11;7.10;90.90
17795;DHT22;9021;50.882;4.326;2023-02-28T07:52:38;7.40;90.30
17795;DHT22;9021;50.882;4.326;2023-02-28T07:55:04;8.20;89.30
17795;DHT22;9021;50.882;4.326;2023-02-28T07:57:30;9.10;86.80
17795;DHT22;9021;50.882;4.326;2023-02-28T07:59:55;10.20;84.60
17795;DHT22;9021;50.882;4.326;2023-02-28T08:02:21;11.10;82.60
17795;DHT22;9021;50.882;4.326;2023-02-28T08:04:46;12.10;79.70
17795;DHT22;9021;50.882;4.326;2023-02-28T08:07:13;12.70;76.70
17795;DHT22;9021;50.882;4.326;2023-02-28T08:09:40;13.20;74.10
17795;DHT22;9021;50.882;4.326;2023-02-28T08:12:06;13.80;72.90
17795;DHT22;9021;50.882;4.326;2023-02-28T08:14:33;14.50;71.70
17795;DHT22;9021;50.882;4.326;2023-02-28T08:16:58;14.80;70.20
17795;DHT22;9021;50.882;4.326;2023-02-28T08:19:24;14.40;69.80
17795;DHT22;9021;50.882;4.326;2023-02-28T08:21:50;13.70;69.50
17795;DHT22;9021;50.882;4.326;2023-02-28T08:24:15;13.70;68.80
17795;DHT22;9021;50.882;4.326;2023-02-28T08:26:41;13.60;68.70
17795;DHT22;9021;50.882;4.326;2023-02-28T08:29:07;13.00;68.70
17795;DHT22;9021;50.882;4.326;2023-02-28T08:31:32;12.70;68.40
17795;DHT22;9021;50.882;4.326;2023-02-28T08:33:58;12.10;68.80
17795;DHT22;9021;50.882;4.326;2023-02-28T08:36:25;11.40;70.50
17795;DHT22;9021;50.882;4.326;2023-02-28T08:38:51;10.80;70.80
17795;DHT22;9021;50.882;4.326;2023-02-28T08:41:17;10.30;71.40
17795;DHT22;9021;50.882;4.326;2023-02-28T08:43:43;9.60;71.40
17795;DHT22;9021;50.882;4.326;2023-02-28T08:46:12;9.30;72.50
17795;DHT22;9021;50.882;4.326;2023-02-28T08:48:39;9.00;73.90
17795;DHT22;9021;50.882;4.326;2023-02-28T08:51:13;9.20;73.10
17795;DHT22;9021;50.882;4.326;2023-02-28T08:53:41;9.00;73.10
17795;DHT22;9021;50.882;4.326;2023-02-28T08:56:12;8.90;72.30
17795;DHT22;9021;50.882;4.326;2023-02-28T08:58:39;8.70;72.70
17795;DHT22;9021;50.882;4.326;2023-02-28T09:01:13;8.70;73.60
17795;DHT22;9021;50.882;4.326;2023-02-28T09:03:40;8.80;73.20
17795;DHT22;9021;50.882;4.326;2023-02-28T09:06:11;8.40;72.90
17795;DHT22;9021;50.882;4.326;2023-02-28T09:08:37;8.10;73.70
17795;DHT22;9021;50.882;4.326;2023-02-28T09:11:03;7.70;74.20
17795;DHT22;9021;50.882;4.326;2023-02-28T09:13:30;7.60;74.20
17795;DHT22;9021;50.882;4.326;2023-02-28T09:16:00;7.60;74.30
17795;DHT22;9021;50.882;4.326;2023-02-28T09:18:26;7.20;75.10
17795;DHT22;9021;50.882;4.326;2023-02-28T09:20:52;7.00;76.50
17795;DHT22;9021;50.882;4.326;2023-02-28T09:23:18;7.20;76.70
17795;DHT22;9021;50.882;4.326;2023-02-28T09:25:52;7.60;76.00
17795;DHT22;9021;50.882;4.326;2023-02-28T09:28:19;7.00;75.60
17795;DHT22;9021;50.882;4.326;2023-02-28T09:30:46;7.10;75.00
17795;DHT22;9021;50.882;4.326;2023-02-28T09:33:13;7.00;75.10
17795;DHT22;9021;50.882;4.326;2023-02-28T09:35:39;7.20;75.00
17795;DHT22;9021;50.882;4.326;2023-02-28T09:38:05;7.10;75.20
17795;DHT22;9021;50.882;4.326;2023-02-28T09:40:36;7.00;74.60
17795;DHT22;9021;50.882;4.326;2023-02-28T09:43:02;7.30;74.90
17795;DHT22;9021;50.882;4.326;2023-02-28T09:45:29;7.80;74.40
17795;DHT22;9021;50.882;4.326;2023-02-28T09:48:01;7.90;73.40
17795;DHT22;9021;50.882;4.326;2023-02-28T09:50:40;7.80;73.40
17795;DHT22;9021;50.882;4.326;2023-02-28T09:53:36;7.80;73.50
17795;DHT22;9021;50.882;4.326;2023-02-28T09:56:10;7.60;72.70
17795;DHT22;9021;50.882;4.326;2023-02-28T10:03:58;7.60;72.70
17795;DHT22;9021;50.882;4.326;2023-02-28T10:06:48;7.70;72.70
17795;DHT22;9021;50.882;4.326;2023-02-28T10:09:27;7.80;72.70
17795;DHT22;9021;50.882;4.326;2023-02-28T10:12:01;8.20;72.30
17795;DHT22;9021;50.882;4.326;2023-02-28T10:14:32;8.60;71.40
17795;DHT22;9021;50.882;4.326;2023-02-28T10:17:08;9.10;70.70
17795;DHT22;9021;50.882;4.326;2023-02-28T10:19:58;9.80;70.00
17795;DHT22;9021;50.882;4.326;2023-02-28T10:24:55;9.70;68.40
17795;DHT22;9021;50.882;4.326;2023-02-28T10:27:28;10.40;68.10
17795;DHT22;9021;50.882;4.326;2023-02-28T10:29:57;11.30;66.70
17795;DHT22;9021;50.882;4.326;2023-02-28T10:32:28;12.60;65.10
17795;DHT22;9021;50.882;4.326;2023-02-28T10:35:37;13.30;62.60
17795;DHT22;9021;50.882;4.326;2023-02-28T10:38:00;12.70;62.80
17795;DHT22;9021;50.882;4.326;2023-02-28T10:40:35;12.10;63.70
17795;DHT22;9021;50.882;4.326;2023-02-28T10:43:03;11.70;63.20
17795;DHT22;9021;50.882;4.326;2023-02-28T10:45:33;11.60;63.90
17795;DHT22;9021;50.882;4.326;2023-02-28T10:53:31;11.40;61.60
17795;DHT22;9021;50.882;4.326;2023-02-28T11:03:49;11.40;60.60
17795;DHT22;9021;50.882;4.326;2023-02-28T11:06:22;12.30;60.20
17795;DHT22;9021;50.882;4.326;2023-02-28T11:08:54;13.00;59.10
17795;DHT22;9021;50.882;4.326;2023-02-28T11:11:21;13.80;58.40
17795;DHT22;9021;50.882;4.326;2023-02-28T11:13:51;14.20;57.60
17795;DHT22;9021;50.882;4.326;2023-02-28T11:16:18;14.30;57.10
17795;DHT22;9021;50.882;4.326;2023-02-28T11:18:48;13.40;57.60
17795;DHT22;9021;50.882;4.326;2023-02-28T11:23:50;14.30;56.70
17795;DHT22;9021;50.882;4.326;2023-02-28T11:26:17;14.50;56.80
17795;DHT22;9021;50.882;4.326;2023-02-28T11:29:25;14.10;56.80
17795;DHT22;9021;50.882;4.326;2023-02-28T11:32:09;14.80;56.70
17795;DHT22;9021;50.882;4.326;2023-02-28T11:34:36;14.90;56.30
17795;DHT22;9021;50.882;4.326;2023-02-28T11:37:03;15.30;56.20
17795;DHT22;9021;50.882;4.326;2023-02-28T11:39:34;16.40;55.50
17795;DHT22;9021;50.882;4.326;2023-02-28T11:42:23;17.00;54.20
17795;DHT22;9021;50.882;4.326;2023-02-28T11:47:44;17.50;53.20
17795;DHT22;9021;50.882;4.326;2023-02-28T11:50:20;17.80;53.20
17795;DHT22;9021;50.882;4.326;2023-02-28T12:01:41;17.90;51.70
17795;DHT22;9021;50.882;4.326;2023-02-28T12:06:55;16.90;51.60
17795;DHT22;9021;50.882;4.326;2023-02-28T12:20:49;18.70;50.80
17795;DHT22;9021;50.882;4.326;2023-02-28T12:28:44;15.40;53.00
17795;DHT22;9021;50.882;4.326;2023-02-28T12:31:21;15.40;53.30
17795;DHT22;9021;50.882;4.326;2023-02-28T12:33:55;16.10;52.50
17795;DHT22;9021;50.882;4.326;2023-02-28T12:36:23;16.90;51.70
17795;DHT22;9021;50.882;4.326;2023-02-28T12:39:18;17.00;51.00
17795;DHT22;9021;50.882;4.326;2023-02-28T12:41:59;17.80;50.80
17795;DHT22;9021;50.882;4.326;2023-02-28T12:44:35;17.40;51.20
17795;DHT22;9021;50.882;4.326;2023-02-28T12:47:05;17.00;51.20
17795;DHT22;9021;50.882;4.326;2023-02-28T12:49:36;17.40;50.40
17795;DHT22;9021;50.882;4.326;2023-02-28T12:52:03;16.60;50.90
17795;DHT22;9021;50.882;4.326;2023-02-28T12:54:40;16.00;51.50
17795;DHT22;9021;50.882;4.326;2023-02-28T12:57:22;16.00;51.10
17795;DHT22;9021;50.882;4.326;2023-02-28T12:59:56;16.20;51.60
17795;DHT22;9021;50.882;4.326;2023-02-28T13:10:59;17.30;50.60
17795;DHT22;9021;50.882;4.326;2023-02-28T13:13:27;16.20;50.60
17795;DHT22;9021;50.882;4.326;2023-02-28T13:16:09;15.90;51.30
17795;DHT22;9021;50.882;4.326;2023-02-28T13:18:40;16.20;51.50
17795;DHT22;9021;50.882;4.326;2023-02-28T13:21:28;15.90;51.00
17795;DHT22;9021;50.882;4.326;2023-02-28T13:24:03;16.70;50.40
17795;DHT22;9021;50.882;4.326;2023-02-28T13:31:27;16.50;50.30
17795;DHT22;9021;50.882;4.326;2023-02-28T13:36:27;15.00;50.90
17795;DHT22;9021;50.882;4.326;2023-02-28T14:02:53;13.80;53.10
17795;DHT22;9021;50.882;4.326;2023-02-28T14:05:25;13.40;53.10
17795;DHT22;9021;50.882;4.326;2023-02-28T14:08:16;13.10;54.10
17795;DHT22;9021;50.882;4.326;2023-02-28T14:10:49;13.10;53.70
17795;DHT22;9021;50.882;4.326;2023-02-28T14:16:06;12.90;54.10
17795;DHT22;9021;50.882;4.326;2023-02-28T14:18:36;12.80;54.00
17795;DHT22;9021;50.882;4.326;2023-02-28T14:21:22;12.70;55.10
17795;DHT22;9021;50.882;4.326;2023-02-28T14:26:44;12.00;54.70
17795;DHT22;9021;50.882;4.326;2023-02-28T14:32:28;11.60;55.50
17795;DHT22;9021;50.882;4.326;2023-02-28T14:37:38;11.60;55.90
17795;DHT22;9021;50.882;4.326;2023-02-28T14:40:11;11.50;55.80
17795;DHT22;9021;50.882;4.326;2023-02-28T14:42:38;11.20;56.50
17795;DHT22;9021;50.882;4.326;2023-02-28T14:45:18;11.00;56.60
17795;DHT22;9021;50.882;4.326;2023-02-28T14:47:44;10.60;56.70
17795;DHT22;9021;50.882;4.326;2023-02-28T14:50:22;10.50;57.30
17795;DHT22;9021;50.882;4.326;2023-02-28T14:52:51;10.40;57.50
17795;DHT22;9021;50.882;4.326;2023-02-28T14:55:19;10.50;57.70
17795;DHT22;9021;50.882;4.326;2023-02-28T14:57:54;10.50;57.90
17795;DHT22;9021;50.882;4.326;2023-02-28T15:00:24;10.60;58.20
17795;DHT22;9021;50.882;4.326;2023-02-28T15:02:51;10.70;57.40
17795;DHT22;9021;50.882;4.326;2023-02-28T15:08:11;10.50;57.80
17795;DHT22;9021;50.882;4.326;2023-02-28T15:10:39;10.30;57.70
17795;DHT22;9021;50.882;4.326;2023-02-28T15:13:08;10.10;58.60
17795;DHT22;9021;50.882;4.326;2023-02-28T15:15:57;9.80;58.50
17795;DHT22;9021;50.882;4.326;2023-02-28T15:21:06;10.10;59.30
17795;DHT22;9021;50.882;4.326;2023-02-28T15:23:34;10.10;59.20
17795;DHT22;9021;50.882;4.326;2023-02-28T15:26:00;10.10;58.60
17795;DHT22;9021;50.882;4.326;2023-02-28T15:28:27;9.80;58.90
17795;DHT22;9021;50.882;4.326;2023-02-28T15:30:59;9.60;59.60
17795;DHT22;9021;50.882;4.326;2023-02-28T15:33:29;9.60;60.10
17795;DHT22;9021;50.882;4.326;2023-02-28T15:36:14;9.60;60.40
17795;DHT22;9021;50.882;4.326;2023-02-28T15:38:42;9.50;60.20
17795;DHT22;9021;50.882;4.326;2023-02-28T15:41:27;9.30;60.10
17795;DHT22;9021;50.882;4.326;2023-02-28T15:44:16;9.30;60.70
17795;DHT22;9021;50.882;4.326;2023-02-28T15:46:55;9.50;61.60
17795;DHT22;9021;50.882;4.326;2023-02-28T15:49:22;9.70;61.30
17795;DHT22;9021;50.882;4.326;2023-02-28T15:51:53;9.60;61.00
17795;DHT22;9021;50.882;4.326;2023-02-28T15:54:24;9.50;60.70
17795;DHT22;9021;50.882;4.326;2023-02-28T15:56:55;9.60;61.60
17795;DHT22;9021;50.882;4.326;2023-02-28T15:59:25;9.70;60.80
17795;DHT22;9021;50.882;4.326;2023-02-28T16:04:37;9.20;61.10
17795;DHT22;9021;50.882;4.326;2023-02-28T16:07:12;9.10;61.10
17795;DHT22;9021;50.882;4.326;2023-02-28T16:09:37;8.80;61.90
17795;DHT22;9021;50.882;4.326;2023-02-28T16:12:03;8.70;61.70
17795;DHT22;9021;50.882;4.326;2023-02-28T16:14:30;8.40;62.30
17795;DHT22;9021;50.882;4.326;2023-02-28T16:17:04;8.30;62.20
17795;DHT22;9021;50.882;4.326;2023-02-28T16:19:31;8.30;62.50
17795;DHT22;9021;50.882;4.326;2023-02-28T16:21:57;8.30;62.80
17795;DHT22;9021;50.882;4.326;2023-02-28T16:24:23;8.30;62.60
17795;DHT22;9021;50.882;4.326;2023-02-28T16:26:51;8.30;63.10
17795;DHT22;9021;50.882;4.326;2023-02-28T16:29:37;8.40;62.80
17795;DHT22;9021;50.882;4.326;2023-02-28T16:32:06;8.20;62.70
17795;DHT22;9021;50.882;4.326;2023-02-28T16:34:32;8.10;63.20
17795;DHT22;9021;50.882;4.326;2023-02-28T16:36:57;7.90;63.50
17795;DHT22;9021;50.882;4.326;2023-02-28T16:39:24;7.80;63.80
17795;DHT22;9021;50.882;4.326;2023-02-28T16:41:50;9.30;65.00
17795;DHT22;9021;50.882;4.326;2023-02-28T16:44:28;7.60;63.80
17795;DHT22;9021;50.882;4.326;2023-02-28T16:47:00;7.60;64.60
17795;DHT22;9021;50.882;4.326;2023-02-28T16:49:25;7.50;64.70
17795;DHT22;9021;50.882;4.326;2023-02-28T16:51:51;7.50;65.10
17795;DHT22;9021;50.882;4.326;2023-02-28T16:54:17;7.60;64.50
17795;DHT22;9021;50.882;4.326;2023-02-28T16:56:45;7.60;65.20
17795;DHT22;9021;50.882;4.326;2023-02-28T16:59:11;8.50;65.70
17795;DHT22;9021;50.882;4.326;2023-02-28T17:01:37;7.40;65.20
17795;DHT22;9021;50.882;4.326;2023-02-28T17:04:03;7.50;65.60
17795;DHT22;9021;50.882;4.326;2023-02-28T17:06:29;7.40;65.90
17795;DHT22;9021;50.882;4.326;2023-02-28T17:08:56;7.40;65.90
17795;DHT22;9021;50.882;4.326;2023-02-28T17:11:24;7.50;66.00
17795;DHT22;9021;50.882;4.326;2023-02-28T17:13:50;7.30;66.00
17795;DHT22;9021;50.882;4.326;2023-02-28T17:16:28;7.20;66.20
17795;DHT22;9021;50.882;4.326;2023-02-28T17:18:57;7.20;66.60
17795;DHT22;9021;50.882;4.326;2023-02-28T17:21:23;7.30;66.40
17795;DHT22;9021;50.882;4.326;2023-02-28T17:23:49;7.40;66.20
17795;DHT22;9021;50.882;4.326;2023-02-28T17:26:17;7.60;66.20
17795;DHT22;9021;50.882;4.326;2023-02-28T17:28:46;7.30;66.20
17795;DHT22;9021;50.882;4.326;2023-02-28T17:31:11;7.10;66.70
17795;DHT22;9021;50.882;4.326;2023-02-28T17:33:37;7.10;67.20
17795;DHT22;9021;50.882;4.326;2023-02-28T17:36:03;7.10;67.30
17795;DHT22;9021;50.882;4.326;2023-02-28T17:38:29;7.20;67.40
17795;DHT22;9021;50.882;4.326;2023-02-28T17:40:54;7.10;67.20
17795;DHT22;9021;50.882;4.326;2023-02-28T17:43:26;7.00;67.30
17795;DHT22;9021;50.882;4.326;2023-02-28T17:45:52;7.00;67.10
17795;DHT22;9021;50.882;4.326;2023-02-28T17:48:19;6.90;67.40
17795;DHT22;9021;50.882;4.326;2023-02-28T17:50:45;7.10;68.00
17795;DHT22;9021;50.882;4.326;2023-02-28T17:53:11;7.00;68.00
17795;DHT22;9021;50.882;4.326;2023-02-28T17:55:36;7.00;68.20
17795;DHT22;9021;50.882;4.326;2023-02-28T17:58:02;7.00;68.00
17795;DHT22;9021;50.882;4.326;2023-02-28T18:00:28;7.00;68.10
17795;DHT22;9021;50.882;4.326;2023-02-28T18:02:54;7.00;68.00
17795;DHT22;9021;50.882;4.326;2023-02-28T18:05:20;7.10;68.20
17795;DHT22;9021;50.882;4.326;2023-02-28T18:07:45;7.10;68.50
17795;DHT22;9021;50.882;4.326;2023-02-28T18:10:17;7.00;68.90
17795;DHT22;9021;50.882;4.326;2023-02-28T18:12:48;7.00;68.70
17795;DHT22;9021;50.882;4.326;2023-02-28T18:15:15;7.70;69.10
17795;DHT22;9021;50.882;4.326;2023-02-28T18:17:41;6.90;69.30
17795;DHT22;9021;50.882;4.326;2023-02-28T18:20:08;6.80;69.50
17795;DHT22;9021;50.882;4.326;2023-02-28T18:22:35;6.80;69.50
17795;DHT22;9021;50.882;4.326;2023-02-28T18:25:05;6.90;69.90
17795;DHT22;9021;50.882;4.326;2023-02-28T18:27:31;6.80;69.80
17795;DHT22;9021;50.882;4.326;2023-02-28T18:29:56;6.90;69.40
17795;DHT22;9021;50.882;4.326;2023-02-28T18:32:22;6.90;69.20
17795;DHT22;9021;50.882;4.326;2023-02-28T18:34:47;7.00;68.70
17795;DHT22;9021;50.882;4.326;2023-02-28T18:37:13;6.90;69.30
17795;DHT22;9021;50.882;4.326;2023-02-28T18:39:40;6.90;69.20